FW4804 Karpenisi GR current weather conditions

sailwx.info

Wind from 313

Air temperature 16.7° C
Dewpoint 14.5° C

Last reported at 2020-Sep-28 15:55 UTC.
Time now 2020-Sep-28 16:31 UTC

Location: N 38°54' E 021°47'.
View on Google Maps.

See reports from other nearby stations

  
Tides and Currents Weather Stations Pressure Air Temp Water Temp Dewpoint Dewpoint Depression Visibility Wind Speed Wind Dir Waves Ship Positions
date/time (UTC)wind fromknots sea level pressurealtimeterstation pressurevisibilityair tempwater tempwave heightnotes
2020-Sep-28 15:55 313 16.7
2020-Sep-28 15:50 179 0 gusting 1 16.7
2020-Sep-28 15:40 281 3 gusting 6 17.8
2020-Sep-28 15:35 267 3 gusting 6 17.8
2020-Sep-28 15:30 253 3 gusting 6 17.8
2020-Sep-28 15:25 249 4 gusting 6 17.8
2020-Sep-28 15:20 257 4 gusting 6 17.8
2020-Sep-28 15:15 266 3 gusting 5 18.3
2020-Sep-28 15:10 268 5 gusting 6 18.3
2020-Sep-28 15:05 259 4 gusting 6 18.3
2020-Sep-28 14:55 259 4 gusting 6 18.3
2020-Sep-28 14:50 267 5 gusting 6 18.3
2020-Sep-28 14:45 265 4 gusting 6 17.8
2020-Sep-28 14:40 253 4 gusting 7 17.8
2020-Sep-28 14:35 257 4 gusting 7 17.8
2020-Sep-28 14:25 266 3 gusting 4 17.8
2020-Sep-28 14:20 270 2 gusting 3 17.8
2020-Sep-28 14:15 277 3 gusting 5 17.8
2020-Sep-28 14:10 278 3 gusting 6 17.8
2020-Sep-28 14:05 261 3 gusting 6 17.8
2020-Sep-28 14:00 246 1 gusting 6 17.8
2020-Sep-28 13:55 265 17.8
2020-Sep-28 13:50 145 0 gusting 1 17.8
2020-Sep-28 13:40 168 0 gusting 1 17.8
2020-Sep-28 13:35 267 0 gusting 1 17.8
2020-Sep-28 13:30 279 0 gusting 1 17.2
2020-Sep-28 13:25 270 17.2
2020-Sep-28 13:20 299 17.2
2020-Sep-28 13:10 263 0 gusting 1 17.2
2020-Sep-28 13:05 011 0 gusting 1 17.2
2020-Sep-28 13:00 056 0 gusting 1 16.7
2020-Sep-28 12:55 135 17.2
2020-Sep-28 12:50 124 17.2
2020-Sep-28 12:40 278 16.7
2020-Sep-28 12:35 355 16.7
2020-Sep-28 12:30 354 0 gusting 1 16.7
2020-Sep-28 12:25 010 0 gusting 1 16.7
2020-Sep-28 12:20 326 0 gusting 0 16.7
2020-Sep-28 12:15 136 0 gusting 1 16.7
2020-Sep-28 12:10 137 0 gusting 1 17.2
2020-Sep-28 12:05 250 0 gusting 1 16.7
2020-Sep-28 12:00 302 0 gusting 1 16.7
2020-Sep-28 11:55 298 0 gusting 1 16.7
2020-Sep-28 11:50 147 16.7
2020-Sep-28 11:45 16.7
2020-Sep-28 11:35 16.7
2020-Sep-28 11:30 16.7
2020-Sep-28 11:25 16.7
2020-Sep-28 11:20 16.7
2020-Sep-28 11:15 16.7
2020-Sep-28 11:05 16.7
2020-Sep-28 10:55 294 0 gusting 2 16.1
2020-Sep-28 10:50 284 0 gusting 2 16.1
2020-Sep-28 10:45 276 0 gusting 2 16.1
2020-Sep-28 10:40 289 16.7
2020-Sep-28 10:35 214 0 gusting 1 16.7
2020-Sep-28 10:25 280 0 gusting 2 16.7
2020-Sep-28 10:20 297 0 gusting 1 16.7
2020-Sep-28 10:15 304 0 gusting 3 16.1
2020-Sep-28 10:10 277 1 gusting 3 16.1
2020-Sep-28 10:05 269 1 gusting 2 16.1
2020-Sep-28 10:00 337 0 gusting 1 16.1
2020-Sep-28 09:55 238 1 gusting 5 16.7
2020-Sep-28 09:50 235 3 gusting 5 16.1
2020-Sep-28 09:45 254 1 gusting 3 16.1
2020-Sep-28 09:40 292 0 gusting 2 16.7
2020-Sep-28 09:35 259 1 gusting 3 16.7
2020-Sep-28 09:30 260 1 gusting 3 16.7
2020-Sep-28 09:20 270 0 gusting 1 16.7
2020-Sep-28 09:15 234 0 gusting 1 17.2
2020-Sep-28 09:10 217 0 gusting 1 17.2
2020-Sep-28 09:05 275 0 gusting 2 17.2
2020-Sep-28 09:00 306 1 gusting 2 17.8
2020-Sep-28 08:55 299 2 gusting 3 18.3
2020-Sep-28 08:50 281 3 gusting 3 18.3
2020-Sep-28 08:45 277 2 gusting 3 18.3
2020-Sep-28 08:40 269 2 gusting 6 18.9
2020-Sep-28 08:35 279 4 gusting 7 18.9
2020-Sep-28 08:30 295 5 gusting 8 19.4
2020-Sep-28 08:25 289 5 gusting 9 18.9
2020-Sep-28 08:20 266 5 gusting 9 18.9
2020-Sep-28 08:15 284 5 gusting 9 18.9
2020-Sep-28 08:10 299 4 gusting 6 18.3
2020-Sep-28 08:05 255 3 gusting 8 18.3
2020-Sep-28 08:00 281 5 gusting 8 18.3
2020-Sep-28 07:55 287 6 gusting 8 18.9
2020-Sep-28 07:50 268 6 gusting 7 18.9
2020-Sep-28 07:45 251 5 gusting 7 18.9
2020-Sep-28 07:35 277 6 gusting 9 19.4
2020-Sep-28 07:25 273 5 gusting 8 19.4
2020-Sep-28 07:15 269 2 gusting 6 18.9
2020-Sep-28 07:10 277 1 gusting 3 18.9
2020-Sep-28 07:05 288 1 gusting 2 18.9
2020-Sep-28 06:55 276 1 gusting 3 18.3
2020-Sep-28 06:50 266 0 gusting 3 17.8
2020-Sep-28 06:45 282 0 gusting 1 17.8
2020-Sep-28 06:40 244 0 gusting 2 16.7
2020-Sep-28 06:35 176 0 gusting 2 16.1
2020-Sep-28 06:25 133 0 gusting 1 15.6
2020-Sep-28 06:20 171 0 gusting 1 15.0
2020-Sep-28 06:10 144 1 gusting 1 14.4
2020-Sep-28 06:05 269 1 gusting 1 14.4
2020-Sep-28 05:55 296 1 gusting 1 13.9
2020-Sep-28 05:50 223 0 gusting 1 13.9
2020-Sep-28 05:45 242 0 gusting 1 13.9
2020-Sep-28 05:40 138 1 gusting 2 13.3
2020-Sep-28 05:35 104 0 gusting 2 13.3
2020-Sep-28 05:30 201 0 gusting 2 12.8
2020-Sep-28 05:25 249 0 gusting 1 12.8
2020-Sep-28 05:20 142 0 gusting 2 12.2
2020-Sep-28 05:10 165 1 gusting 2 11.7
2020-Sep-28 05:05 241 1 gusting 2 11.7
2020-Sep-28 04:55 243 0 gusting 1 11.7
2020-Sep-28 04:50 251 0 gusting 1 11.7
2020-Sep-28 04:45 232 0 gusting 1 11.7
2020-Sep-28 04:40 257 0 gusting 3 11.7
2020-Sep-28 04:35 271 1 gusting 3 11.7
2020-Sep-28 04:30 268 0 gusting 1 11.7
2020-Sep-28 04:25 245 0 gusting 1 11.7
2020-Sep-28 04:20 153 0 gusting 1 11.7
2020-Sep-28 04:15 285 0 gusting 1 11.7
2020-Sep-28 04:10 247 0 gusting 1 11.7
2020-Sep-28 04:00 209 0 gusting 1 11.1
2020-Sep-28 03:55 306 11.7
2020-Sep-28 03:50 301 0 gusting 1 11.7
2020-Sep-28 03:45 292 11.7
2020-Sep-28 03:40 270 11.7
2020-Sep-28 03:35 270 0 gusting 1 11.7
2020-Sep-28 03:25 273 0 gusting 1 11.7
2020-Sep-28 03:20 307 11.7
2020-Sep-28 03:10 112 0 gusting 1 11.7
2020-Sep-28 03:05 122 0 gusting 1 11.7
2020-Sep-28 02:55 116 0 gusting 1 11.1
2020-Sep-28 02:50 133 0 gusting 1 11.1
2020-Sep-28 02:45 139 0 gusting 1 11.1
2020-Sep-28 02:40 155 11.1
2020-Sep-28 02:35 130 0 gusting 1 11.1
2020-Sep-28 02:25 274 0 gusting 1 11.1
2020-Sep-28 02:20 270 11.1
2020-Sep-28 02:10 280 0 gusting 1 11.1
2020-Sep-28 02:05 275 0 gusting 1 11.1
2020-Sep-28 01:55 189 0 gusting 1 11.1
2020-Sep-28 01:45 021 1 gusting 3 11.1
2020-Sep-28 01:40 048 2 gusting 3 11.1
2020-Sep-28 01:35 027 1 gusting 2 11.1
2020-Sep-28 01:25 230 0 gusting 1 11.1
2020-Sep-28 01:20 236 11.1
2020-Sep-28 01:10 262 0 gusting 1 11.1
2020-Sep-28 01:05 260 0 gusting 1 11.1
2020-Sep-28 00:55 277 0 gusting 1 11.1
2020-Sep-28 00:45 107 1 gusting 3 11.1
2020-Sep-28 00:35 023 1 gusting 3 10.6
2020-Sep-28 00:30 067 2 gusting 3 10.6
2020-Sep-28 00:25 114 1 gusting 3 10.6
2020-Sep-28 00:20 079 1 gusting 3 10.6
2020-Sep-28 00:10 328 1 gusting 2 10.0
2020-Sep-28 00:05 339 1 gusting 2 10.0
2020-Sep-27 23:55 117 0 gusting 1 10.0
2020-Sep-27 23:50 159 0 gusting 1 9.4
2020-Sep-27 23:45 242 0 gusting 1 9.4
2020-Sep-27 23:40 254 0 gusting 1 9.4
2020-Sep-27 23:35 198 0 gusting 1 9.4
2020-Sep-27 23:25 357 0 gusting 1 9.4
2020-Sep-27 23:20 006 0 gusting 1 9.4
2020-Sep-27 23:10 135 9.4
2020-Sep-27 23:05 135 9.4
2020-Sep-27 22:55 135 9.4
2020-Sep-27 22:50 135 9.4
2020-Sep-27 22:45 135 9.4
2020-Sep-27 22:35 135 0 gusting 1 9.4
2020-Sep-27 22:30 135 0 gusting 1 9.4
2020-Sep-27 22:20 009 0 gusting 1 9.4
2020-Sep-27 22:15 038 9.4
2020-Sep-27 22:10 172 9.4
2020-Sep-27 22:05 137 10.0
2020-Sep-27 21:59 120 0 gusting 1 10.0
2020-Sep-27 21:54 119 0 gusting 1 10.0
2020-Sep-27 21:49 037 10.0
2020-Sep-27 21:44 135 0 gusting 1 10.0
2020-Sep-27 21:39 130 0 gusting 1 10.0
2020-Sep-27 21:34 114 0 gusting 0 10.0
2020-Sep-27 21:29 121 0 gusting 1 10.0
2020-Sep-27 21:24 145 0 gusting 1 10.0
2020-Sep-27 21:19 155 10.0
2020-Sep-27 21:14 350 0 gusting 1 10.6
2020-Sep-27 21:09 347 0 gusting 1 10.6
2020-Sep-27 21:04 036 0 gusting 1 10.6
2020-Sep-27 20:59 133 0 gusting 1 10.6
2020-Sep-27 20:54 133 0 gusting 1 10.6
2020-Sep-27 20:49 129 0 gusting 1 10.6
2020-Sep-27 20:44 144 0 gusting 1 10.6
2020-Sep-27 20:39 136 0 gusting 1 10.6
2020-Sep-27 20:34 118 0 gusting 1 10.6
2020-Sep-27 20:30 130 0 gusting 1 10.6
2020-Sep-27 20:24 087 0 gusting 1 10.6
2020-Sep-27 20:19 032 10.6
2020-Sep-27 20:14 013 10.6
2020-Sep-27 20:09 116 10.6
2020-Sep-27 20:04 005 0 gusting 1 10.6
2020-Sep-27 19:59 004 0 gusting 1 10.6
2020-Sep-27 19:54 135 10.6
2020-Sep-27 19:49 136 0 gusting 1 11.1
2020-Sep-27 19:44 090 0 gusting 1 11.1
2020-Sep-27 19:39 353 0 gusting 1 11.1
2020-Sep-27 19:34 076 0 gusting 1 11.1
2020-Sep-27 19:29 127 0 gusting 1 11.1
2020-Sep-27 19:24 052 0 gusting 1 11.1
2020-Sep-27 19:19 031 0 gusting 1 11.1
2020-Sep-27 19:14 127 0 gusting 1 11.1
2020-Sep-27 19:10 108 0 gusting 1 11.1
2020-Sep-27 19:05 307 0 gusting 0 11.1
2020-Sep-27 19:00 147 0 gusting 2 11.1
2020-Sep-27 18:54 146 1 gusting 2 11.1
2020-Sep-27 18:49 127 0 gusting 1 11.7
2020-Sep-27 18:44 060 0 gusting 1 11.7
2020-Sep-27 18:39 117 0 gusting 1 11.7
2020-Sep-27 18:34 135 0 gusting 1 11.7
2020-Sep-27 18:29 305 0 gusting 1 11.7
2020-Sep-27 18:24 305 0 gusting 1 11.7
2020-Sep-27 18:19 11.7
2020-Sep-27 18:14 129 11.7
2020-Sep-27 18:09 073 0 gusting 1 12.2
2020-Sep-27 18:04 302 0 gusting 1 12.2
2020-Sep-27 17:59 270 12.2
2020-Sep-27 17:54 135 12.2
2020-Sep-27 17:49 126 0 gusting 1 12.2
2020-Sep-27 17:44 031 0 gusting 1 12.2
2020-Sep-27 17:39 039 0 gusting 1 12.2
2020-Sep-27 17:35 095 0 gusting 1 12.8
2020-Sep-27 17:29 011 0 gusting 1 12.8
2020-Sep-27 17:24 001 12.8
2020-Sep-27 17:19 270 12.8
2020-Sep-27 17:14 149 12.8
2020-Sep-27 17:09 135 0 gusting 1 13.3
2020-Sep-27 17:04 229 0 gusting 1 13.3
2020-Sep-27 16:59 326 0 gusting 1 13.3
2020-Sep-27 16:55 038 0 gusting 1 13.3
2020-Sep-27 16:49 125 0 gusting 1 13.9
2020-Sep-27 16:44 085 13.9
2020-Sep-27 16:39 278 0 gusting 1 13.9
2020-Sep-27 16:34 276 0 gusting 1 13.9
2020-Sep-27 16:29 287 0 gusting 1 13.9
2020-Sep-27 16:24 289 0 gusting 1 14.4
2020-Sep-27 16:19 274 0 gusting 1 14.4
2020-Sep-27 16:14 270 0 gusting 1 14.4
2020-Sep-27 16:10 270 15.0
2020-Sep-27 16:05 270 15.0
2020-Sep-27 15:59 270 15.6
2020-Sep-27 15:54 270 15.6
2020-Sep-27 15:49 281 16.1
2020-Sep-27 15:44 337 0 gusting 1 16.1
2020-Sep-27 15:39 077 16.7
2020-Sep-27 15:34 108 16.7
2020-Sep-27 15:29 276 17.2
2020-Sep-27 15:24 065 17.2
2020-Sep-27 15:19 128 0 gusting 1 17.2
2020-Sep-27 15:14 136 0 gusting 1 17.2
2020-Sep-27 15:09 118 0 gusting 1 17.8
2020-Sep-27 15:04 092 0 gusting 1 17.8
2020-Sep-27 14:59 314 1 gusting 3 17.8
2020-Sep-27 14:54 295 1 gusting 3 18.3
2020-Sep-27 14:50 300 1 gusting 5 18.3
2020-Sep-27 14:44 276 2 gusting 6 18.3
2020-Sep-27 14:39 263 2 gusting 6 18.3
2020-Sep-27 14:34 244 2 gusting 6 18.9
2020-Sep-27 14:29 230 3 gusting 6 19.4
2020-Sep-27 14:24 234 4 gusting 6 19.4
2020-Sep-27 14:19 260 5 gusting 6 19.4
2020-Sep-27 14:14 270 6 gusting 9 19.4
2020-Sep-27 14:09 272 5 gusting 9 19.4
2020-Sep-27 14:05 269 4 gusting 6 19.4
2020-Sep-27 13:59 269 5 gusting 6 19.4
2020-Sep-27 13:55 263 5 gusting 7 19.4
2020-Sep-27 13:49 264 4 gusting 7 19.4
2020-Sep-27 13:44 263 4 gusting 7 18.9
2020-Sep-27 13:39 257 4 gusting 6 18.9
2020-Sep-27 13:34 267 4 gusting 8 18.3
2020-Sep-27 13:29 266 5 gusting 8 18.3
2020-Sep-27 13:24 260 6 gusting 12 18.3
2020-Sep-27 13:19 262 6 gusting 12 18.3
2020-Sep-27 13:14 263 5 gusting 7 18.3
2020-Sep-27 13:09 260 3 gusting 7 18.9
2020-Sep-27 13:04 267 3 gusting 7 18.9
2020-Sep-27 12:59 246 2 gusting 7 18.9
2020-Sep-27 12:55 210 1 gusting 3 18.3
2020-Sep-27 12:49 268 1 gusting 3 18.3
2020-Sep-27 12:44 285 0 gusting 1 18.3
2020-Sep-27 12:39 293 2 gusting 4 18.3
2020-Sep-27 12:34 291 3 gusting 4 18.9
2020-Sep-27 12:29 286 3 gusting 4 18.9
2020-Sep-27 12:24 266 3 gusting 6 18.9
2020-Sep-27 12:19 256 4 gusting 6 18.9
2020-Sep-27 12:14 269 4 gusting 6 18.9
2020-Sep-27 12:09 267 3 gusting 5 18.9
2020-Sep-27 12:04 283 3 gusting 5 18.9
2020-Sep-27 11:59 330 4 gusting 6 18.9
2020-Sep-27 11:54 315 4 gusting 6 19.4
2020-Sep-27 11:49 270 4 gusting 6 19.4
2020-Sep-27 11:44 273 5 gusting 6 19.4
2020-Sep-27 11:39 270 3 gusting 6 18.9
2020-Sep-27 11:34 286 2 gusting 3 18.9
2020-Sep-27 11:30 277 3 gusting 4 18.9
2020-Sep-27 11:24 264 2 gusting 4 18.9
2020-Sep-27 11:19 253 1 gusting 3 18.9
2020-Sep-27 11:14 226 1 gusting 2 18.9
2020-Sep-27 11:09 230 1 gusting 2 18.9
2020-Sep-27 11:04 160 1 gusting 2 19.4
2020-Sep-27 10:59 101 0 gusting 2 18.9
2020-Sep-27 10:54 096 0 gusting 1 18.9
2020-Sep-27 10:49 161 1 gusting 3 18.9
2020-Sep-27 10:44 239 3 gusting 5 18.9
2020-Sep-27 10:39 269 5 gusting 6 18.9
2020-Sep-27 10:34 288 5 gusting 6 19.4
2020-Sep-27 10:30 275 4 gusting 6 18.9
2020-Sep-27 10:24 250 4 gusting 6 18.3
2020-Sep-27 10:20 259 4 gusting 6 18.3
2020-Sep-27 10:14 263 4 gusting 5 18.3
2020-Sep-27 10:09 257 3 gusting 5 18.3
2020-Sep-27 10:04 286 3 gusting 6 18.3
2020-Sep-27 09:59 279 3 gusting 6 18.3
2020-Sep-27 09:54 248 3 gusting 6 18.3
2020-Sep-27 09:49 237 3 gusting 6 17.8
2020-Sep-27 09:44 257 3 gusting 6 17.8
2020-Sep-27 09:39 288 3 gusting 6 18.3
2020-Sep-27 09:34 291 3 gusting 6 18.3
2020-Sep-27 09:25 249 3 gusting 5 18.3
2020-Sep-27 09:20 234 3 gusting 6 18.3
2020-Sep-27 09:14 250 4 gusting 6 18.3
2020-Sep-27 09:09 252 3 gusting 6 17.8
2020-Sep-27 09:04 239 3 gusting 6 17.8
2020-Sep-27 08:59 250 4 gusting 6 17.8
2020-Sep-27 08:54 273 2 gusting 3 17.2
2020-Sep-27 08:49 243 2 gusting 4 17.2
2020-Sep-27 08:44 231 2 gusting 4 17.2
2020-Sep-27 08:39 267 1 gusting 4 17.8
2020-Sep-27 08:34 257 2 gusting 5 17.2
2020-Sep-27 08:29 249 3 gusting 5 17.2
2020-Sep-27 08:24 279 3 gusting 6 17.2
2020-Sep-27 08:19 287 3 gusting 6 17.2
2020-Sep-27 08:14 257 3 gusting 7 16.7
2020-Sep-27 08:09 259 3 gusting 7 16.7
2020-Sep-27 08:04 281 2 gusting 3 16.7
2020-Sep-27 07:59 311 3 gusting 6 16.1
2020-Sep-27 07:54 296 3 gusting 6 15.6
2020-Sep-27 07:49 277 2 gusting 4 15.6
2020-Sep-27 07:44 281 2 gusting 4 15.6
2020-Sep-27 07:39 256 2 gusting 6 15.0
2020-Sep-27 07:34 244 3 gusting 6 15.0
2020-Sep-27 07:29 213 2 gusting 3 15.0
2020-Sep-27 07:25 225 2 gusting 4 15.0
2020-Sep-27 07:19 257 3 gusting 4 15.0
2020-Sep-27 07:14 259 3 gusting 4 15.0
2020-Sep-27 07:09 259 2 gusting 4 14.4
2020-Sep-27 07:04 263 1 gusting 3 14.4
2020-Sep-27 06:59 269 2 gusting 3 14.4
2020-Sep-27 06:54 267 2 gusting 3 13.9
2020-Sep-27 06:49 254 1 gusting 1 13.3
2020-Sep-27 06:44 270 0 gusting 1 13.3
2020-Sep-27 06:39 277 0 gusting 1 13.3
2020-Sep-27 06:35 244 0 gusting 1 13.3
2020-Sep-27 06:29 250 0 gusting 1 12.8
2020-Sep-27 06:25 231 0 gusting 1 12.2
2020-Sep-27 06:19 287 0 gusting 1 12.2
2020-Sep-27 06:14 310 0 gusting 1 12.2
2020-Sep-27 06:09 280 0 gusting 1 12.2
2020-Sep-27 06:04 272 0 gusting 1 11.7
2020-Sep-27 05:59 273 0 gusting 1 11.7
2020-Sep-27 05:54 270 0 gusting 0 11.7
2020-Sep-27 05:49 270 0 gusting 0 11.7
2020-Sep-27 05:44 270 11.1
2020-Sep-27 05:39 282 11.1
2020-Sep-27 05:34 300 11.1
2020-Sep-27 05:29 314 11.1
2020-Sep-27 05:25 314 11.1
2020-Sep-27 05:19 319 11.1
2020-Sep-27 05:14 090 11.1
2020-Sep-27 05:10 090 11.1
2020-Sep-27 05:04 090 11.1
2020-Sep-27 04:59 090 11.1
2020-Sep-27 04:54 279 11.1
2020-Sep-27 04:49 278 0 gusting 1 11.1
2020-Sep-27 04:44 275 0 gusting 1 11.1
2020-Sep-27 04:39 277 11.1
2020-Sep-27 04:35 286 0 gusting 1 11.1
2020-Sep-27 04:30 285 0 gusting 2 11.1
2020-Sep-27 04:24 282 0 gusting 2 11.1
2020-Sep-27 04:19 270 11.1
2020-Sep-27 04:14 270 11.1
2020-Sep-27 04:09 225 0 gusting 1 11.1
2020-Sep-27 04:05 194 0 gusting 1 11.1
2020-Sep-27 03:59 254 11.1
2020-Sep-27 03:54 270 11.1
2020-Sep-27 03:49 270 11.1
2020-Sep-27 03:44 292 0 gusting 1 11.1
2020-Sep-27 03:39 299 0 gusting 1 11.1
2020-Sep-27 03:34 276 0 gusting 1 11.1
2020-Sep-27 03:29 293 0 gusting 1 11.1
2020-Sep-27 03:24 292 0 gusting 1 11.1
2020-Sep-27 03:20 285 0 gusting 1 11.1
2020-Sep-27 03:14 263 11.1
2020-Sep-27 03:10 147 11.1
2020-Sep-27 03:04 314 0 gusting 1 11.1
2020-Sep-27 02:59 332 0 gusting 1 11.7
2020-Sep-27 02:55 131 0 gusting 1 11.7
2020-Sep-27 02:50 314 0 gusting 1 11.7
2020-Sep-27 02:45 295 0 gusting 1 11.7
2020-Sep-27 02:39 286 0 gusting 1 11.7
2020-Sep-27 02:34 288 11.7
2020-Sep-27 02:29 314 11.7
2020-Sep-27 02:24 013 0 gusting 1 11.7
2020-Sep-27 02:19 282 1 gusting 2 11.7
2020-Sep-27 02:14 275 1 gusting 2 11.7
2020-Sep-27 02:09 297 0 gusting 1 11.7
2020-Sep-27 02:04 153 0 gusting 1 11.7
2020-Sep-27 01:59 195 0 gusting 1 11.7
2020-Sep-27 01:54 235 0 gusting 1 11.7
2020-Sep-27 01:49 142 0 gusting 1 11.7
2020-Sep-27 01:44 151 1 gusting 3 11.7
2020-Sep-27 01:39 254 1 gusting 3 11.1
2020-Sep-27 01:34 048 0 gusting 2 11.1
2020-Sep-27 01:29 089 0 gusting 1 11.7
2020-Sep-27 01:24 260 1 gusting 3 11.7
2020-Sep-27 01:19 284 1 gusting 3 11.7
2020-Sep-27 01:14 038 1 gusting 2 11.1
2020-Sep-27 01:10 318 0 gusting 1 11.1
2020-Sep-27 01:05 139 0 gusting 5 11.1
2020-Sep-27 00:59 098 1 gusting 5 11.1
2020-Sep-27 00:55 079 0 gusting 1 11.1
2020-Sep-27 00:49 144 0 gusting 1 11.1
2020-Sep-27 00:44 153 0 gusting 1 11.1
2020-Sep-27 00:39 006 0 gusting 1 10.6
2020-Sep-27 00:34 109 1 gusting 1 10.6
2020-Sep-27 00:29 104 1 gusting 1 10.6
2020-Sep-27 00:24 090 0 gusting 1 10.6
2020-Sep-27 00:19 206 0 gusting 1 10.6
2020-Sep-27 00:14 158 1 gusting 1 10.6
2020-Sep-27 00:09 130 1 gusting 1 10.0
2020-Sep-27 00:04 127 1 gusting 2 10.0
2020-Sep-26 23:59 112 1 gusting 2 10.0
2020-Sep-26 23:54 085 1 gusting 1 10.0
2020-Sep-26 23:49 097 1 gusting 1 10.6
2020-Sep-26 23:44 123 0 gusting 1 10.6
2020-Sep-26 23:40 163 0 gusting 1 10.6
2020-Sep-26 23:34 168 1 gusting 2 10.6
2020-Sep-26 23:29 178 2 gusting 3 10.6
2020-Sep-26 23:24 171 1 gusting 3 10.6
2020-Sep-26 23:19 125 1 gusting 2 10.6
2020-Sep-26 23:14 133 1 gusting 2 11.1
2020-Sep-26 23:09 126 1 gusting 2 11.1
2020-Sep-26 23:04 172 2 gusting 5 11.7
2020-Sep-26 22:59 236 3 gusting 6 11.7
2020-Sep-26 22:54 324 2 gusting 6 11.7
2020-Sep-26 22:49 158 1 gusting 2 11.7
2020-Sep-26 22:44 222 2 gusting 5 12.2
2020-Sep-26 22:39 210 4 gusting 9 12.2
2020-Sep-26 22:34 224 5 gusting 9 12.2
2020-Sep-26 22:24 274 5 gusting 9 12.2
2020-Sep-26 22:19 247 5 gusting 9 12.2
2020-Sep-26 22:09 296 3 gusting 5 11.7
2020-Sep-26 22:04 278 3 gusting 7 11.1
2020-Sep-26 21:59 289 3 gusting 7 11.1
2020-Sep-26 21:54 023 1 gusting 3 10.6
2020-Sep-26 21:49 137 1 gusting 2 11.1
2020-Sep-26 21:44 318 1 gusting 5 11.1
2020-Sep-26 21:40 302 1 gusting 5 11.1
2020-Sep-26 21:34 209 1 gusting 3 11.1
2020-Sep-26 21:29 202 1 gusting 3 11.1
2020-Sep-26 21:24 191 1 gusting 3 11.7
2020-Sep-26 21:19 126 1 gusting 3 11.7
2020-Sep-26 21:14 266 2 gusting 4 12.2
2020-Sep-26 21:09 274 3 gusting 6 12.2
2020-Sep-26 21:04 263 2 gusting 6 12.2
2020-Sep-26 21:00 226 4 gusting 6 12.2
2020-Sep-26 20:54 228 4 gusting 6 12.8
2020-Sep-26 20:49 243 4 gusting 6 12.8
2020-Sep-26 20:44 252 5 gusting 6 12.8
2020-Sep-26 20:40 262 3 gusting 6 12.2
2020-Sep-26 20:34 270 4 gusting 6 12.8
2020-Sep-26 20:29 283 5 gusting 7 12.8
2020-Sep-26 20:24 283 6 gusting 9 12.8
2020-Sep-26 20:19 266 6 gusting 9 12.8
2020-Sep-26 20:14 261 6 gusting 9 12.8
2020-Sep-26 20:09 260 6 gusting 9 12.8
2020-Sep-26 20:05 281 6 gusting 10 12.2
2020-Sep-26 19:59 300 4 gusting 10 12.2
2020-Sep-26 19:54 280 3 gusting 8 11.7
2020-Sep-26 19:49 281 4 gusting 8 11.7
2020-Sep-26 19:44 270 5 gusting 9 12.2
2020-Sep-26 19:39 246 6 gusting 9 11.7
2020-Sep-26 19:34 239 4 gusting 9 11.7
2020-Sep-26 19:30 227 2 gusting 5 11.1
2020-Sep-26 19:25 240 1 gusting 3 11.1
2020-Sep-26 19:19 278 2 gusting 5 11.1
2020-Sep-26 19:14 265 4 gusting 6 11.7
2020-Sep-26 19:09 250 4 gusting 6 11.7
2020-Sep-26 19:05 261 3 gusting 6 11.7
2020-Sep-26 18:59 255 1 gusting 3 11.1
2020-Sep-26 18:54 240 2 gusting 4 11.1
2020-Sep-26 18:49 241 2 gusting 5 11.1
2020-Sep-26 18:44 233 1 gusting 5 11.1
2020-Sep-26 18:39 270 1 gusting 3 11.1
2020-Sep-26 18:34 273 1 gusting 3 11.7
2020-Sep-26 18:30 270 2 gusting 3 11.7
2020-Sep-26 18:24 272 2 gusting 4 11.7
2020-Sep-26 18:19 270 2 gusting 4 11.7
2020-Sep-26 18:14 235 1 gusting 6 11.7
2020-Sep-26 18:09 239 2 gusting 6 12.2
2020-Sep-26 18:04 268 1 gusting 6 12.2
2020-Sep-26 17:59 268 1 gusting 5 12.2
2020-Sep-26 17:55 267 4 gusting 8 12.8
2020-Sep-26 17:49 266 5 gusting 8 12.8
2020-Sep-26 17:45 265 5 gusting 8 12.8
2020-Sep-26 17:39 260 4 gusting 8 12.8
2020-Sep-26 17:34 245 3 gusting 6 12.8
2020-Sep-26 17:29 229 4 gusting 9 12.8
2020-Sep-26 17:24 242 6 gusting 11 12.8
2020-Sep-26 17:20 263 6 gusting 11 12.8
2020-Sep-26 17:14 276 6 gusting 16 12.8
2020-Sep-26 17:09 250 8 gusting 16 13.3
2020-Sep-26 17:04 233 6 gusting 13 12.8
2020-Sep-26 16:59 261 4 gusting 13 12.8
2020-Sep-26 16:54 265 6 gusting 8 12.8
2020-Sep-26 16:49 252 6 gusting 12 12.8
2020-Sep-26 16:44 252 6 gusting 12 12.8
2020-Sep-26 16:39 267 6 gusting 10 12.8
2020-Sep-26 16:35 275 7 gusting 11 12.8
2020-Sep-26 16:30 272 6 gusting 11 13.3
2020-Sep-26 16:25 261 6 gusting 11 13.3
2020-Sep-26 16:19 267 5 gusting 9 13.3
2020-Sep-26 16:15 284 6 gusting 9 13.3
2020-Sep-26 16:09 282 6 gusting 9 13.3
2020-Sep-26 16:04 268 4 gusting 7 13.3